createdAt,value
2022-08-28T00:01:34.478Z,7.82
2022-08-28T00:04:02.475Z,7.05
2022-08-28T00:06:30.328Z,7.07
2022-08-28T00:08:59.009Z,6.57
2022-08-28T00:11:28.160Z,6.13
2022-08-28T00:13:56.796Z,6.65
2022-08-28T00:16:24.867Z,5.82
2022-08-28T00:18:54.444Z,6.20
2022-08-28T00:21:22.267Z,6.45
2022-08-28T00:23:50.097Z,6.13
2022-08-28T00:26:43.912Z,6.65
2022-08-28T00:29:12.161Z,5.85
2022-08-28T00:31:40.424Z,5.80
2022-08-28T00:34:09.192Z,6.10
2022-08-28T00:36:38.616Z,6.43
2022-08-28T00:39:07.748Z,6.10
2022-08-28T00:41:38.833Z,6.35
2022-08-28T00:44:17.307Z,6.13
2022-08-28T00:46:47.659Z,5.78
2022-08-28T00:52:08.580Z,6.10
2022-08-28T00:54:54.438Z,5.60
2022-08-28T00:57:31.587Z,6.00
2022-08-28T01:00:01.606Z,7.97
2022-08-28T01:02:29.740Z,5.80
2022-08-28T01:04:57.684Z,5.63
2022-08-28T01:07:25.679Z,5.30
2022-08-28T01:09:55.680Z,6.10
2022-08-28T01:12:25.960Z,5.55
2022-08-28T01:15:00.104Z,6.00
2022-08-28T01:17:34.179Z,5.88
2022-08-28T01:20:06.768Z,6.68
2022-08-28T01:22:38.009Z,5.45
2022-08-28T01:25:13.258Z,5.60
2022-08-28T01:27:42.414Z,5.78
2022-08-28T01:30:12.475Z,5.53
2022-08-28T01:32:43.017Z,5.65
2022-08-28T01:35:14.881Z,5.97
2022-08-28T01:37:43.730Z,5.72
2022-08-28T01:40:17.701Z,5.13
2022-08-28T01:42:46.000Z,4.85
2022-08-28T01:45:17.778Z,5.20
2022-08-28T01:47:46.589Z,4.50
2022-08-28T01:50:18.152Z,5.63
2022-08-28T01:52:46.013Z,5.22
2022-08-28T01:55:15.301Z,5.90
2022-08-28T01:57:51.418Z,5.22
2022-08-28T02:00:20.275Z,5.93
2022-08-28T02:02:48.622Z,5.80
2022-08-28T02:05:16.426Z,5.75
2022-08-28T02:07:44.895Z,5.85
2022-08-28T02:10:12.935Z,5.03
2022-08-28T02:12:43.326Z,5.72
2022-08-28T02:17:39.890Z,5.25
2022-08-28T02:20:09.376Z,5.22
2022-08-28T02:22:37.569Z,5.38
2022-08-28T02:25:07.304Z,4.90
2022-08-28T02:27:35.658Z,5.38
2022-08-28T02:30:05.797Z,5.18
2022-08-28T02:32:33.689Z,4.80
2022-08-28T02:35:01.895Z,5.25
2022-08-28T02:37:29.773Z,4.97
2022-08-28T02:39:59.129Z,5.15
2022-08-28T02:42:28.535Z,4.88
2022-08-28T02:44:56.333Z,5.53
2022-08-28T02:47:25.984Z,5.20
2022-08-28T02:49:53.810Z,5.00
2022-08-28T02:52:22.480Z,5.40
2022-08-28T02:54:50.359Z,5.32
2022-08-28T02:57:18.177Z,4.97
2022-08-28T02:59:47.743Z,4.38
2022-08-28T03:02:15.590Z,4.93
2022-08-28T03:04:44.794Z,4.63
2022-08-28T03:07:13.729Z,4.55
2022-08-28T03:09:43.628Z,5.07
2022-08-28T03:12:13.223Z,4.45
2022-08-28T03:14:42.436Z,4.70
2022-08-28T03:17:10.391Z,4.90
2022-08-28T03:19:38.246Z,4.95
2022-08-28T03:22:07.410Z,4.80
2022-08-28T03:24:34.242Z,5.03
2022-08-28T03:27:02.060Z,5.82
2022-08-28T03:29:29.944Z,5.20
2022-08-28T03:31:58.171Z,5.57
2022-08-28T03:34:25.947Z,5.10
2022-08-28T03:36:53.798Z,5.10
2022-08-28T03:39:23.107Z,5.55
2022-08-28T03:41:51.562Z,5.10
2022-08-28T03:44:19.371Z,4.68
2022-08-28T03:46:47.157Z,5.68
2022-08-28T03:49:15.185Z,5.43
2022-08-28T03:51:45.034Z,5.32
2022-08-28T03:54:12.864Z,5.18
2022-08-28T03:56:43.293Z,5.28
2022-08-28T04:01:39.017Z,5.40
2022-08-28T04:04:07.121Z,5.70
2022-08-28T04:06:36.171Z,5.03
2022-08-28T04:09:04.553Z,4.72
2022-08-28T04:11:32.789Z,6.15
2022-08-28T04:14:01.954Z,5.15
2022-08-28T04:16:29.913Z,5.32
2022-08-28T04:18:59.391Z,5.10
2022-08-28T04:21:28.054Z,6.68
2022-08-28T04:23:56.567Z,5.43
2022-08-28T04:26:26.506Z,4.90
2022-08-28T04:28:55.983Z,4.68
2022-08-28T04:31:32.290Z,5.50
2022-08-28T04:34:01.450Z,5.95
2022-08-28T04:36:30.104Z,5.07
2022-08-28T04:38:58.549Z,5.10
2022-08-28T04:41:27.638Z,4.40
2022-08-28T04:43:57.630Z,5.28
2022-08-28T04:46:30.931Z,5.07
2022-08-28T04:48:59.483Z,5.07
2022-08-28T04:51:27.729Z,5.00
2022-08-28T04:53:55.524Z,4.60
2022-08-28T04:56:23.349Z,4.75
2022-08-28T04:58:51.255Z,4.70
2022-08-28T05:01:21.907Z,4.68
2022-08-28T05:03:55.193Z,4.72
2022-08-28T05:06:23.125Z,5.47
2022-08-28T05:08:51.064Z,4.53
2022-08-28T05:11:24.571Z,4.30
2022-08-28T05:14:03.662Z,4.40
2022-08-28T05:16:31.493Z,4.65
2022-08-28T05:19:02.261Z,4.75
2022-08-28T05:21:30.167Z,4.70
2022-08-28T05:23:59.198Z,4.43
2022-08-28T05:26:29.709Z,4.45
2022-08-28T05:28:59.486Z,4.10
2022-08-28T05:31:29.165Z,4.53
2022-08-28T05:33:57.117Z,5.00
2022-08-28T05:36:32.361Z,4.88
2022-08-28T05:39:02.166Z,4.45
2022-08-28T05:41:31.567Z,5.03
2022-08-28T05:44:00.712Z,5.00
2022-08-28T05:46:29.424Z,4.68
2022-08-28T05:48:59.609Z,5.35
2022-08-28T05:51:29.356Z,4.22
2022-08-28T05:53:58.350Z,5.00
2022-08-28T05:56:29.599Z,4.05
2022-08-28T05:58:57.697Z,5.18
2022-08-28T06:01:28.556Z,6.32
2022-08-28T06:03:58.938Z,4.53
2022-08-28T06:06:29.995Z,4.57
2022-08-28T06:08:59.328Z,4.60
2022-08-28T06:11:30.433Z,4.32
2022-08-28T06:13:59.637Z,4.13
2022-08-28T06:16:29.581Z,4.40
2022-08-28T06:18:57.799Z,4.68
2022-08-28T06:21:26.076Z,3.72
2022-08-28T06:23:55.280Z,3.92
2022-08-28T06:26:23.366Z,5.55
2022-08-28T06:28:51.276Z,3.95
2022-08-28T06:31:24.301Z,3.88
2022-08-28T06:33:54.558Z,4.10
2022-08-28T06:36:22.895Z,3.60
2022-08-28T06:38:51.118Z,3.10
2022-08-28T06:41:20.377Z,3.65
2022-08-28T06:43:48.971Z,3.77
2022-08-28T06:46:19.379Z,3.60
2022-08-28T06:51:15.214Z,3.53
2022-08-28T06:53:45.132Z,3.95
2022-08-28T06:56:18.396Z,3.53
2022-08-28T06:58:58.705Z,3.90
2022-08-28T07:01:30.111Z,3.38
2022-08-28T07:04:02.278Z,4.00
2022-08-28T07:06:34.088Z,3.17
2022-08-28T07:09:02.296Z,3.17
2022-08-28T07:11:32.590Z,3.80
2022-08-28T07:14:02.176Z,3.30
2022-08-28T07:16:32.947Z,3.88
2022-08-28T07:19:03.704Z,3.60
2022-08-28T07:21:32.677Z,3.42
2022-08-28T07:24:05.524Z,3.42
2022-08-28T07:26:33.593Z,3.47
2022-08-28T07:29:10.934Z,3.45
2022-08-28T07:31:41.199Z,3.70
2022-08-28T07:34:10.590Z,3.80
2022-08-28T07:36:38.886Z,3.70
2022-08-28T07:39:07.476Z,3.35
2022-08-28T07:41:39.097Z,3.70
2022-08-28T07:44:28.740Z,3.58
2022-08-28T07:46:57.959Z,3.27
2022-08-28T07:49:26.458Z,3.08
2022-08-28T07:51:54.643Z,3.47
2022-08-28T07:54:23.076Z,3.67
2022-08-28T07:56:52.638Z,2.70
2022-08-28T07:59:22.099Z,3.17
2022-08-28T08:01:51.854Z,3.27
2022-08-28T08:04:21.041Z,3.75
2022-08-28T08:06:50.073Z,3.70
2022-08-28T08:09:22.222Z,4.35
2022-08-28T08:11:50.367Z,3.67
2022-08-28T08:14:19.157Z,3.40
2022-08-28T08:16:49.267Z,3.35
2022-08-28T08:19:19.068Z,3.58
2022-08-28T08:21:53.214Z,3.63
2022-08-28T08:24:26.065Z,3.70
2022-08-28T08:26:59.484Z,3.40
2022-08-28T08:29:29.763Z,4.30
2022-08-28T08:32:04.920Z,3.47
2022-08-28T08:34:33.428Z,3.30
2022-08-28T08:37:01.636Z,3.50
2022-08-28T08:39:31.787Z,3.47
2022-08-28T08:42:05.704Z,3.22
2022-08-28T08:44:40.367Z,4.00
2022-08-28T08:47:15.170Z,3.50
2022-08-28T08:49:50.356Z,4.03
2022-08-28T08:52:35.094Z,4.50
2022-08-28T08:55:07.694Z,3.72
2022-08-28T09:02:57.549Z,3.65
2022-08-28T09:06:30.363Z,3.42
2022-08-28T09:09:20.466Z,3.33
2022-08-28T09:11:57.026Z,3.90
2022-08-28T09:14:37.210Z,3.90
2022-08-28T09:17:06.880Z,4.05
2022-08-28T09:19:36.717Z,4.47
2022-08-28T09:22:04.665Z,3.92
2022-08-28T09:24:36.849Z,3.53
2022-08-28T09:27:11.087Z,3.03
2022-08-28T09:29:43.583Z,5.00
2022-08-28T09:32:23.270Z,4.13
2022-08-28T09:35:07.709Z,3.05
2022-08-28T09:37:37.343Z,3.70
2022-08-28T09:40:25.311Z,3.80
2022-08-28T09:43:23.939Z,3.22
2022-08-28T09:45:59.262Z,3.67
2022-08-28T09:48:34.631Z,3.67
2022-08-28T09:51:06.213Z,3.28
2022-08-28T09:53:37.571Z,3.80
2022-08-28T09:56:12.754Z,3.85
2022-08-28T09:58:44.491Z,3.60
2022-08-28T10:01:27.542Z,3.30
2022-08-28T10:04:09.826Z,3.92
2022-08-28T10:06:40.064Z,3.40
2022-08-28T10:09:23.870Z,2.85
2022-08-28T10:11:59.033Z,3.50
2022-08-28T10:14:41.262Z,3.75
2022-08-28T10:17:18.910Z,3.50
2022-08-28T10:19:59.326Z,3.35
2022-08-28T10:22:40.814Z,3.08
2022-08-28T10:25:20.978Z,3.65
2022-08-28T10:30:24.272Z,2.72
2022-08-28T10:33:09.965Z,3.65
2022-08-28T10:35:50.699Z,3.40
2022-08-28T10:38:32.009Z,3.03
2022-08-28T10:41:04.150Z,3.40
2022-08-28T10:43:36.665Z,3.53
2022-08-28T10:46:11.458Z,4.15
2022-08-28T10:48:47.525Z,3.17
2022-08-28T10:51:34.943Z,3.05
2022-08-28T10:54:09.431Z,2.83
2022-08-28T10:56:42.020Z,2.72
2022-08-28T10:59:09.843Z,3.08
2022-08-28T11:01:41.416Z,3.20
2022-08-28T11:04:23.544Z,3.97
2022-08-28T11:06:56.845Z,3.30
2022-08-28T11:09:34.060Z,3.15
2022-08-28T11:12:03.955Z,3.47
2022-08-28T11:14:35.584Z,3.40
2022-08-28T11:17:40.942Z,2.55
2022-08-28T11:20:15.341Z,3.40
2022-08-28T11:22:48.049Z,2.80
2022-08-28T11:25:26.543Z,3.38
2022-08-28T11:28:16.239Z,3.13
2022-08-28T11:30:45.810Z,3.30
2022-08-28T11:33:37.710Z,2.78
2022-08-28T11:36:09.896Z,2.67
2022-08-28T11:39:04.592Z,3.30
2022-08-28T11:41:36.381Z,2.80
2022-08-28T11:44:28.256Z,3.17
2022-08-28T11:47:52.096Z,3.38
2022-08-28T11:50:24.953Z,3.67
2022-08-28T11:53:13.632Z,3.22
2022-08-28T11:56:10.427Z,2.95
2022-08-28T11:58:48.792Z,3.10
2022-08-28T12:01:28.444Z,2.90
2022-08-28T12:03:59.433Z,3.17
2022-08-28T12:06:47.937Z,3.10
2022-08-28T12:09:38.402Z,2.97
2022-08-28T12:12:09.698Z,3.33
2022-08-28T12:15:10.392Z,2.92
2022-08-28T12:17:50.449Z,3.70
2022-08-28T12:20:30.997Z,2.60
2022-08-28T12:23:00.650Z,2.75
2022-08-28T12:25:36.245Z,3.00
2022-08-28T12:28:16.701Z,3.03
2022-08-28T12:30:55.275Z,2.65
2022-08-28T12:33:33.014Z,2.80
2022-08-28T12:36:03.706Z,3.08
2022-08-28T12:38:33.889Z,3.40
2022-08-28T12:41:03.852Z,3.05
2022-08-28T12:43:40.919Z,3.08
2022-08-28T12:46:28.076Z,3.42
2022-08-28T12:48:58.661Z,3.42
2022-08-28T12:51:28.288Z,3.25
2022-08-28T12:53:58.575Z,3.17
2022-08-28T12:56:30.032Z,3.00
2022-08-28T12:59:27.106Z,3.50
2022-08-28T13:02:03.555Z,2.97
2022-08-28T13:04:35.587Z,2.97
2022-08-28T13:07:10.529Z,3.13
2022-08-28T13:09:44.034Z,3.10
2022-08-28T13:12:20.762Z,2.92
2022-08-28T13:14:50.834Z,3.08
2022-08-28T13:20:08.883Z,3.40
2022-08-28T13:22:41.673Z,3.42
2022-08-28T13:25:22.636Z,3.20
2022-08-28T13:27:58.134Z,2.85
2022-08-28T13:30:29.664Z,3.25
2022-08-28T13:33:01.654Z,3.25
2022-08-28T13:35:40.462Z,3.42
2022-08-28T13:38:12.451Z,3.53
2022-08-28T13:40:58.055Z,3.08
2022-08-28T13:43:28.352Z,3.05
2022-08-28T13:45:56.166Z,3.33
2022-08-28T13:48:28.339Z,3.30
2022-08-28T13:51:05.194Z,3.28
2022-08-28T13:53:38.528Z,3.75
2022-08-28T13:56:06.797Z,3.17
2022-08-28T13:58:34.780Z,4.20
2022-08-28T14:01:03.131Z,3.40
2022-08-28T14:03:38.351Z,3.08
2022-08-28T14:06:09.221Z,3.45
2022-08-28T14:08:37.062Z,2.95
2022-08-28T14:11:04.982Z,3.22
2022-08-28T14:13:32.756Z,3.22
2022-08-28T14:16:00.653Z,3.08
2022-08-28T14:18:28.992Z,3.20
2022-08-28T14:20:58.106Z,2.90
2022-08-28T14:23:25.917Z,2.97
2022-08-28T14:25:53.740Z,2.92
2022-08-28T14:28:21.592Z,2.90
2022-08-28T14:30:51.380Z,3.15
2022-08-28T14:33:20.705Z,3.33
2022-08-28T14:35:49.862Z,3.17
2022-08-28T14:38:19.084Z,3.00
2022-08-28T14:40:46.898Z,3.43
2022-08-28T14:43:15.730Z,3.42
2022-08-28T14:45:45.614Z,3.47
2022-08-28T14:48:14.385Z,3.20
2022-08-28T14:50:43.152Z,3.42
2022-08-28T14:53:11.581Z,3.28
2022-08-28T14:55:42.132Z,3.65
2022-08-28T14:58:09.940Z,3.13
2022-08-28T15:00:42.137Z,2.78
2022-08-28T15:03:10.725Z,3.05
2022-08-28T15:05:39.253Z,2.83
2022-08-28T15:08:08.349Z,3.28
2022-08-28T15:10:38.462Z,2.78
2022-08-28T15:15:39.287Z,3.28
2022-08-28T15:18:07.979Z,3.10
2022-08-28T15:20:39.529Z,3.47
2022-08-28T15:23:07.370Z,3.05
2022-08-28T15:25:35.469Z,2.95
2022-08-28T15:28:03.778Z,3.05
2022-08-28T15:30:33.356Z,2.55
2022-08-28T15:33:01.159Z,3.40
2022-08-28T15:35:29.118Z,3.10
2022-08-28T15:37:57.152Z,3.10
2022-08-28T15:40:43.316Z,3.15
2022-08-28T15:43:12.156Z,2.70
2022-08-28T15:45:43.209Z,2.75
2022-08-28T15:48:13.409Z,3.00
2022-08-28T15:50:42.863Z,2.65
2022-08-28T15:53:13.095Z,2.75
2022-08-28T15:55:42.373Z,3.00
2022-08-28T15:58:14.195Z,2.78
2022-08-28T16:00:45.291Z,3.00
2022-08-28T16:03:14.328Z,3.17
2022-08-28T16:05:43.159Z,2.97
2022-08-28T16:08:13.453Z,3.20
2022-08-28T16:10:42.382Z,2.22
2022-08-28T16:13:12.426Z,2.75
2022-08-28T16:18:13.093Z,2.72
2022-08-28T16:20:45.355Z,3.15
2022-08-28T16:23:14.863Z,5.15
2022-08-28T16:25:43.528Z,6.50
2022-08-28T16:28:15.203Z,4.20
2022-08-28T16:30:46.013Z,3.10
2022-08-28T16:33:20.312Z,3.05
2022-08-28T16:35:56.274Z,2.92
2022-08-28T16:38:26.173Z,3.45
2022-08-28T16:40:54.112Z,3.10
2022-08-28T16:43:21.908Z,3.00
2022-08-28T16:45:50.994Z,3.00
2022-08-28T16:48:20.464Z,2.97
2022-08-28T16:50:48.302Z,2.70
2022-08-28T16:53:17.063Z,2.92
2022-08-28T16:55:54.994Z,3.42
2022-08-28T16:58:23.155Z,2.75
2022-08-28T17:00:52.828Z,2.63
2022-08-28T17:03:26.482Z,2.40
2022-08-28T17:05:56.759Z,2.40
2022-08-28T17:08:24.671Z,2.35
2022-08-28T17:10:52.741Z,2.78
2022-08-28T17:13:20.555Z,3.22
2022-08-28T17:15:48.430Z,2.38
2022-08-28T17:18:16.301Z,2.60
2022-08-28T17:21:02.893Z,3.03
2022-08-28T17:23:31.189Z,2.20
2022-08-28T17:26:08.696Z,2.28
2022-08-28T17:28:36.674Z,2.40
2022-08-28T17:31:04.593Z,2.63
2022-08-28T17:33:32.511Z,2.63
2022-08-28T17:36:01.710Z,2.80
2022-08-28T17:38:30.126Z,2.35
2022-08-28T17:40:58.379Z,2.40
2022-08-28T17:43:26.192Z,2.47
2022-08-28T17:45:54.013Z,2.50
2022-08-28T17:48:21.751Z,2.55
2022-08-28T17:50:49.576Z,2.30
2022-08-28T17:53:18.802Z,2.60
2022-08-28T17:55:47.062Z,2.88
2022-08-28T17:58:15.006Z,2.20
2022-08-28T18:00:43.892Z,2.58
2022-08-28T18:03:11.777Z,2.85
2022-08-28T18:05:41.163Z,2.22
2022-08-28T18:08:09.509Z,2.53
2022-08-28T18:10:38.908Z,2.38
2022-08-28T18:13:07.390Z,2.65
2022-08-28T18:15:36.858Z,2.40
2022-08-28T18:18:06.780Z,2.30
2022-08-28T18:20:37.912Z,3.20
2022-08-28T18:23:06.076Z,3.35
2022-08-28T18:25:51.007Z,2.58
2022-08-28T18:28:22.739Z,2.75
2022-08-28T18:30:52.746Z,3.35
2022-08-28T18:33:23.172Z,2.60
2022-08-28T18:35:53.722Z,2.03
2022-08-28T18:38:28.790Z,2.13
2022-08-28T18:40:57.366Z,2.35
2022-08-28T18:43:26.788Z,2.60
2022-08-28T18:45:55.209Z,2.20
2022-08-28T18:48:24.267Z,2.92
2022-08-28T18:50:52.452Z,2.25
2022-08-28T18:53:22.726Z,2.60
2022-08-28T18:58:22.276Z,3.28
2022-08-28T19:00:52.693Z,2.20
2022-08-28T19:03:24.220Z,2.70
2022-08-28T19:05:52.177Z,2.30
2022-08-28T19:08:20.132Z,2.50
2022-08-28T19:10:48.163Z,2.92
2022-08-28T19:13:16.079Z,2.97
2022-08-28T19:15:44.042Z,2.88
2022-08-28T19:18:13.521Z,3.60
2022-08-28T19:20:41.503Z,3.50
2022-08-28T19:23:09.314Z,3.10
2022-08-28T19:25:37.205Z,3.22
2022-08-28T19:28:05.201Z,2.80
2022-08-28T19:30:35.724Z,3.13
2022-08-28T19:33:05.491Z,4.63
2022-08-28T19:35:35.903Z,7.05
2022-08-28T19:40:31.728Z,7.10
2022-08-28T19:43:00.891Z,6.15
2022-08-28T19:45:30.216Z,3.65
2022-08-28T19:47:58.754Z,4.10
2022-08-28T19:50:27.190Z,3.83
2022-08-28T19:52:56.382Z,4.60
2022-08-28T19:55:26.055Z,4.80
2022-08-28T19:57:54.800Z,6.35
2022-08-28T20:00:24.817Z,6.90
2022-08-28T20:02:53.436Z,5.53
2022-08-28T20:05:22.501Z,4.97
2022-08-28T20:07:51.456Z,4.30
2022-08-28T20:10:21.374Z,5.00
2022-08-28T20:12:49.373Z,6.63
2022-08-28T20:15:19.647Z,6.20
2022-08-28T20:17:50.195Z,6.20
2022-08-28T20:20:18.868Z,7.65
2022-08-28T20:22:46.723Z,6.82
2022-08-28T20:25:18.184Z,5.28
2022-08-28T20:30:15.298Z,3.58
2022-08-28T20:32:43.377Z,3.65
2022-08-28T20:35:13.198Z,3.05
2022-08-28T20:37:44.951Z,3.10
2022-08-28T20:40:15.911Z,3.08
2022-08-28T20:42:44.026Z,4.25
2022-08-28T20:45:15.082Z,3.15
2022-08-28T20:47:42.964Z,3.40
2022-08-28T20:50:11.745Z,3.15
2022-08-28T20:52:40.016Z,3.88
2022-08-28T20:55:09.247Z,3.60
2022-08-28T20:57:37.571Z,4.13
2022-08-28T21:00:06.497Z,3.88
2022-08-28T21:02:35.989Z,3.63
2022-08-28T21:05:04.927Z,3.42
2022-08-28T21:07:33.790Z,4.90
2022-08-28T21:10:05.478Z,4.38
2022-08-28T21:12:35.916Z,3.08
2022-08-28T21:15:04.465Z,3.95
2022-08-28T21:17:32.301Z,3.33
2022-08-28T21:20:04.391Z,3.55
2022-08-28T21:22:32.963Z,3.85
2022-08-28T21:25:04.184Z,3.70
2022-08-28T21:27:32.797Z,3.03
2022-08-28T21:30:01.531Z,3.53
2022-08-28T21:32:30.516Z,4.13
2022-08-28T21:35:00.699Z,3.28
2022-08-28T21:37:31.124Z,4.25
2022-08-28T21:42:27.851Z,3.03
2022-08-28T21:44:55.669Z,3.20
2022-08-28T21:47:24.639Z,3.42
2022-08-28T21:49:53.287Z,4.13
2022-08-28T21:52:22.534Z,3.28
2022-08-28T21:54:56.861Z,3.08
2022-08-28T21:57:24.715Z,2.85
2022-08-28T21:59:52.535Z,3.35
2022-08-28T22:02:20.739Z,3.05
2022-08-28T22:04:49.300Z,3.00
2022-08-28T22:07:17.434Z,3.50
2022-08-28T22:09:45.264Z,2.90
2022-08-28T22:12:14.526Z,2.58
2022-08-28T22:14:42.366Z,3.15
2022-08-28T22:17:11.537Z,2.90
2022-08-28T22:19:40.523Z,3.92
2022-08-28T22:22:37.477Z,2.70
2022-08-28T22:25:06.145Z,2.65
2022-08-28T22:27:35.550Z,4.47
2022-08-28T22:30:03.542Z,2.90
2022-08-28T22:32:31.358Z,2.97
2022-08-28T22:34:59.166Z,2.75
2022-08-28T22:37:26.947Z,3.08
2022-08-28T22:39:54.785Z,2.50
2022-08-28T22:42:23.052Z,2.78
2022-08-28T22:44:52.200Z,2.45
2022-08-28T22:47:20.073Z,2.53
2022-08-28T22:49:47.966Z,2.17
2022-08-28T22:52:16.384Z,2.65
2022-08-28T22:54:44.274Z,2.72
2022-08-28T22:57:12.125Z,2.08
2022-08-28T22:59:39.942Z,2.13
2022-08-28T23:02:09.174Z,2.40
2022-08-28T23:04:37.281Z,3.55
2022-08-28T23:07:05.625Z,2.15
2022-08-28T23:09:36.022Z,2.20
2022-08-28T23:14:32.004Z,2.17
2022-08-28T23:17:00.018Z,2.05
2022-08-28T23:19:30.481Z,3.30
2022-08-28T23:21:58.295Z,2.08
2022-08-28T23:24:26.464Z,2.50
2022-08-28T23:26:54.228Z,2.60
2022-08-28T23:29:22.032Z,3.30
2022-08-28T23:31:50.107Z,2.08
2022-08-28T23:34:17.944Z,1.92
2022-08-28T23:36:47.076Z,2.17
2022-08-28T23:39:15.217Z,2.08
2022-08-28T23:41:43.350Z,2.03
2022-08-28T23:44:11.245Z,2.30
2022-08-28T23:46:41.338Z,2.45
2022-08-28T23:49:11.020Z,2.53
2022-08-28T23:51:38.965Z,2.13
2022-08-28T23:54:09.099Z,2.40
2022-08-28T23:56:37.942Z,2.33
2022-08-28T23:59:06.979Z,2.42
